Terminal Aerodrome Forecast
Issued by NWS Twin Cities, MN

Home | Current Version | Previous Version | Graphics & Text | Print | Product List | Glossary On
Versions: 1 2 3 4 5 6 7 8 9 10 11 12 13 14
000
FTUS43 KMPX 180500
TAFSTC
TAF
KSTC 180529Z 1806/1906 09007KT 4SM BR BKN004 OVC008
     FM180800 17002KT 2SM BR OVC004
      TEMPO 1808/1812 1/2SM FG OVC001
     FM181200 21005KT 2SM -DZ BR OVC003
      TEMPO 1814/1818 2SM TSRA BKN012CB OVC020
     FM181900 25009KT P6SM -SHRA BKN050 OVC100
     FM190000 29004KT P6SM BKN150=

USA.gov is the U.S. government's official web portal to all federal, state and local government web resources and services.